sensor_id;sensor_type;location;lat;lon;timestamp;temperature;humidity
12981;DHT22;6555;50.468;8.480;2023-05-27T00:03:30;16.10;39.60
12981;DHT22;6555;50.468;8.480;2023-05-27T00:08:47;15.90;39.50
12981;DHT22;6555;50.468;8.480;2023-05-27T00:14:34;15.80;39.90
12981;DHT22;6555;50.468;8.480;2023-05-27T00:20:27;15.70;39.90
12981;DHT22;6555;50.468;8.480;2023-05-27T00:26:14;15.60;40.00
12981;DHT22;6555;50.468;8.480;2023-05-27T00:33:00;15.50;39.70
12981;DHT22;6555;50.468;8.480;2023-05-27T00:38:47;15.40;40.20
12981;DHT22;6555;50.468;8.480;2023-05-27T00:44:46;15.40;40.40
12981;DHT22;6555;50.468;8.480;2023-05-27T00:50:22;15.30;40.40
12981;DHT22;6555;50.468;8.480;2023-05-27T00:56:16;15.20;40.30
12981;DHT22;6555;50.468;8.480;2023-05-27T01:01:57;15.10;40.50
12981;DHT22;6555;50.468;8.480;2023-05-27T01:19:01;15.10;40.70
12981;DHT22;6555;50.468;8.480;2023-05-27T01:24:37;15.00;40.80
12981;DHT22;6555;50.468;8.480;2023-05-27T01:30:07;14.90;40.80
12981;DHT22;6555;50.468;8.480;2023-05-27T01:35:34;14.80;40.60
12981;DHT22;6555;50.468;8.480;2023-05-27T01:41:30;14.80;40.60
12981;DHT22;6555;50.468;8.480;2023-05-27T01:47:13;14.70;40.80
12981;DHT22;6555;50.468;8.480;2023-05-27T01:52:46;14.60;40.90
12981;DHT22;6555;50.468;8.480;2023-05-27T01:58:23;14.50;40.70
12981;DHT22;6555;50.468;8.480;2023-05-27T02:03:53;14.50;40.90
12981;DHT22;6555;50.468;8.480;2023-05-27T02:09:39;14.30;40.40
12981;DHT22;6555;50.468;8.480;2023-05-27T02:15:23;14.10;40.50
12981;DHT22;6555;50.468;8.480;2023-05-27T02:21:12;14.00;41.20
12981;DHT22;6555;50.468;8.480;2023-05-27T02:26:45;13.90;41.40
12981;DHT22;6555;50.468;8.480;2023-05-27T02:48:53;13.60;41.10
12981;DHT22;6555;50.468;8.480;2023-05-27T02:54:32;13.50;41.30
12981;DHT22;6555;50.468;8.480;2023-05-27T03:00:27;13.30;40.90
12981;DHT22;6555;50.468;8.480;2023-05-27T03:06:31;13.20;40.90
12981;DHT22;6555;50.468;8.480;2023-05-27T03:12:22;13.00;41.50
12981;DHT22;6555;50.468;8.480;2023-05-27T03:24:12;12.90;41.50
12981;DHT22;6555;50.468;8.480;2023-05-27T03:29:58;13.00;42.20
12981;DHT22;6555;50.468;8.480;2023-05-27T03:35:17;13.00;41.70
12981;DHT22;6555;50.468;8.480;2023-05-27T03:41:18;13.00;41.90
12981;DHT22;6555;50.468;8.480;2023-05-27T03:47:13;13.00;42.20
12981;DHT22;6555;50.468;8.480;2023-05-27T03:53:11;13.00;41.80
12981;DHT22;6555;50.468;8.480;2023-05-27T03:58:45;12.90;42.50
12981;DHT22;6555;50.468;8.480;2023-05-27T04:16:15;12.90;42.30
12981;DHT22;6555;50.468;8.480;2023-05-27T04:21:46;12.80;42.40
12981;DHT22;6555;50.468;8.480;2023-05-27T04:27:24;12.70;42.20
12981;DHT22;6555;50.468;8.480;2023-05-27T04:33:14;12.80;42.20
12981;DHT22;6555;50.468;8.480;2023-05-27T04:39:06;12.70;42.90
12981;DHT22;6555;50.468;8.480;2023-05-27T04:45:21;12.60;42.50
12981;DHT22;6555;50.468;8.480;2023-05-27T05:08:11;12.90;43.20
12981;DHT22;6555;50.468;8.480;2023-05-27T05:14:23;13.00;43.70
12981;DHT22;6555;50.468;8.480;2023-05-27T05:20:02;13.10;44.40
12981;DHT22;6555;50.468;8.480;2023-05-27T05:25:52;13.20;43.90
12981;DHT22;6555;50.468;8.480;2023-05-27T05:36:58;13.50;43.80
12981;DHT22;6555;50.468;8.480;2023-05-27T05:42:24;13.60;43.80
12981;DHT22;6555;50.468;8.480;2023-05-27T05:47:37;13.70;44.90
12981;DHT22;6555;50.468;8.480;2023-05-27T05:53:05;13.90;43.90
12981;DHT22;6555;50.468;8.480;2023-05-27T05:58:23;14.00;44.40
12981;DHT22;6555;50.468;8.480;2023-05-27T06:03:47;14.10;44.60
12981;DHT22;6555;50.468;8.480;2023-05-27T06:09:12;14.20;44.00
12981;DHT22;6555;50.468;8.480;2023-05-27T06:15:01;14.30;44.80
12981;DHT22;6555;50.468;8.480;2023-05-27T06:20:27;14.50;45.10
12981;DHT22;6555;50.468;8.480;2023-05-27T06:26:08;14.70;44.80
12981;DHT22;6555;50.468;8.480;2023-05-27T06:31:51;14.90;45.00
12981;DHT22;6555;50.468;8.480;2023-05-27T06:54:27;15.90;45.00
12981;DHT22;6555;50.468;8.480;2023-05-27T06:59:59;16.20;45.20
12981;DHT22;6555;50.468;8.480;2023-05-27T07:05:54;16.50;44.90
12981;DHT22;6555;50.468;8.480;2023-05-27T07:17:42;17.10;45.00
12981;DHT22;6555;50.468;8.480;2023-05-27T07:23:14;17.30;44.90
12981;DHT22;6555;50.468;8.480;2023-05-27T07:35:30;17.90;44.80
12981;DHT22;6555;50.468;8.480;2023-05-27T07:42:00;18.10;44.70
12981;DHT22;6555;50.468;8.480;2023-05-27T07:59:45;18.90;44.70
12981;DHT22;6555;50.468;8.480;2023-05-27T08:30:44;20.10;44.30
12981;DHT22;6555;50.468;8.480;2023-05-27T09:05:45;21.60;43.90
12981;DHT22;6555;50.468;8.480;2023-05-27T09:16:57;22.00;43.60
12981;DHT22;6555;50.468;8.480;2023-05-27T20:59:24;21.60;34.20
12981;DHT22;6555;50.468;8.480;2023-05-27T21:35:22;20.90;34.30
12981;DHT22;6555;50.468;8.480;2023-05-27T21:47:07;20.60;34.80
12981;DHT22;6555;50.468;8.480;2023-05-27T21:58:57;20.20;34.70
12981;DHT22;6555;50.468;8.480;2023-05-27T22:05:10;20.00;35.20
12981;DHT22;6555;50.468;8.480;2023-05-27T22:11:20;19.80;35.40
12981;DHT22;6555;50.468;8.480;2023-05-27T22:22:53;19.50;35.00
12981;DHT22;6555;50.468;8.480;2023-05-27T22:29:26;19.30;35.30
12981;DHT22;6555;50.468;8.480;2023-05-27T23:17:50;18.10;36.10
12981;DHT22;6555;50.468;8.480;2023-05-27T23:30:23;17.90;36.60
12981;DHT22;6555;50.468;8.480;2023-05-27T23:37:25;17.70;36.10
12981;DHT22;6555;50.468;8.480;2023-05-27T23:51:03;17.40;36.90
